createdAt,value
2019-02-04T00:00:37.908Z,15.03
2019-02-04T00:01:43.697Z,15.67
2019-02-04T00:02:48.185Z,18.60
2019-02-04T00:03:52.598Z,17.37
2019-02-04T00:04:57.018Z,23.70
2019-02-04T00:06:01.458Z,15.63
2019-02-04T00:07:06.052Z,18.90
2019-02-04T00:08:11.354Z,17.30
2019-02-04T00:09:15.748Z,16.00
2019-02-04T00:10:20.247Z,17.53
2019-02-04T00:11:24.826Z,17.53
2019-02-04T00:12:29.203Z,16.63
2019-02-04T00:13:33.782Z,14.77
2019-02-04T00:14:38.148Z,16.90
2019-02-04T00:15:42.617Z,19.93
2019-02-04T00:16:47.080Z,15.57
2019-02-04T00:17:52.224Z,17.13
2019-02-04T00:18:56.872Z,15.27
2019-02-04T00:20:01.247Z,17.57
2019-02-04T00:21:05.677Z,17.73
2019-02-04T00:22:10.116Z,16.83
2019-02-04T00:23:14.546Z,24.67
2019-02-04T00:24:19.000Z,18.97
2019-02-04T00:25:23.800Z,20.17
2019-02-04T00:26:28.586Z,18.90
2019-02-04T00:27:33.107Z,17.27
2019-02-04T00:28:37.476Z,20.53
2019-02-04T00:29:41.915Z,16.00
2019-02-04T00:30:46.371Z,16.53
2019-02-04T00:31:50.738Z,17.60
2019-02-04T00:32:55.511Z,17.03
2019-02-04T00:33:59.927Z,18.63
2019-02-04T00:35:04.944Z,17.90
2019-02-04T00:36:09.576Z,20.43
2019-02-04T00:37:14.009Z,18.70
2019-02-04T00:38:18.681Z,17.60
2019-02-04T00:39:23.214Z,19.47
2019-02-04T00:40:27.800Z,20.47
2019-02-04T00:41:32.182Z,19.83
2019-02-04T00:42:36.533Z,21.40
2019-02-04T00:43:41.397Z,15.37
2019-02-04T00:44:45.966Z,23.30
2019-02-04T00:45:50.335Z,19.67
2019-02-04T00:46:54.872Z,17.03
2019-02-04T00:47:59.377Z,22.33
2019-02-04T00:49:03.848Z,17.27
2019-02-04T00:50:08.881Z,21.17
2019-02-04T00:51:13.311Z,21.30
2019-02-04T00:52:17.828Z,20.70
2019-02-04T00:53:22.236Z,18.23
2019-02-04T00:54:26.695Z,18.97
2019-02-04T00:55:31.132Z,18.17
2019-02-04T00:56:35.567Z,19.43
2019-02-04T00:57:39.984Z,19.40
2019-02-04T00:58:44.463Z,22.43
2019-02-04T00:59:48.895Z,20.87
2019-02-04T01:00:53.668Z,20.30
2019-02-04T01:01:58.001Z,18.10
2019-02-04T01:03:03.089Z,21.90
2019-02-04T01:04:07.549Z,23.10
2019-02-04T01:05:12.812Z,16.83
2019-02-04T01:06:17.616Z,17.33
2019-02-04T01:07:22.028Z,19.80
2019-02-04T01:08:26.424Z,20.70
2019-02-04T01:09:30.809Z,20.43
2019-02-04T01:10:35.173Z,17.53
2019-02-04T01:11:39.551Z,19.53
2019-02-04T01:12:43.962Z,20.90
2019-02-04T01:13:48.421Z,17.87
2019-02-04T01:14:52.765Z,21.63
2019-02-04T01:15:57.213Z,21.20
2019-02-04T01:17:03.549Z,18.50
2019-02-04T01:18:07.818Z,19.37
2019-02-04T01:19:12.598Z,22.30
2019-02-04T01:20:26.286Z,19.80
2019-02-04T01:21:31.021Z,17.53
2019-02-04T01:22:35.796Z,18.57
2019-02-04T01:23:40.282Z,18.67
2019-02-04T01:24:44.778Z,19.23
2019-02-04T01:25:49.176Z,24.33
2019-02-04T01:26:53.560Z,21.13
2019-02-04T01:27:57.946Z,21.60
2019-02-04T01:29:02.300Z,22.50
2019-02-04T01:30:07.328Z,15.97
2019-02-04T01:31:31.384Z,18.70
2019-02-04T01:32:35.966Z,26.23
2019-02-04T01:33:40.393Z,20.37
2019-02-04T01:34:45.013Z,18.50
2019-02-04T01:35:49.564Z,20.13
2019-02-04T01:36:54.716Z,25.40
2019-02-04T01:37:59.144Z,24.60
2019-02-04T01:39:04.861Z,23.47
2019-02-04T01:40:15.861Z,23.83
2019-02-04T01:41:20.402Z,24.93
2019-02-04T01:42:25.212Z,24.43
2019-02-04T01:43:29.804Z,21.10
2019-02-04T01:44:35.829Z,22.97
2019-02-04T01:45:40.191Z,28.83
2019-02-04T01:46:44.674Z,23.83
2019-02-04T01:47:49.248Z,20.90
2019-02-04T01:48:54.125Z,21.70
2019-02-04T01:49:58.596Z,24.13
2019-02-04T01:51:02.989Z,26.77
2019-02-04T01:52:07.489Z,21.57
2019-02-04T01:53:12.109Z,24.03
2019-02-04T01:54:16.585Z,26.13
2019-02-04T01:55:21.200Z,24.77
2019-02-04T01:56:26.500Z,22.50
2019-02-04T01:57:31.139Z,25.10
2019-02-04T01:58:35.728Z,23.00
2019-02-04T01:59:40.165Z,24.13
2019-02-04T02:00:44.796Z,25.73
2019-02-04T02:01:49.219Z,25.43
2019-02-04T02:02:53.777Z,22.70
2019-02-04T02:03:58.264Z,20.33
2019-02-04T02:05:02.681Z,25.20
2019-02-04T02:06:07.468Z,20.73
2019-02-04T02:07:12.131Z,24.87
2019-02-04T02:08:17.038Z,21.30
2019-02-04T02:09:22.799Z,22.87
2019-02-04T02:10:28.718Z,21.87
2019-02-04T02:11:33.304Z,24.33
2019-02-04T02:12:37.843Z,23.17
2019-02-04T02:13:42.309Z,22.13
2019-02-04T02:14:46.909Z,22.47
2019-02-04T02:15:51.535Z,20.67
2019-02-04T02:16:58.977Z,24.77
2019-02-04T02:18:03.824Z,22.43
2019-02-04T02:19:08.288Z,18.73
2019-02-04T02:20:15.016Z,20.73
2019-02-04T02:21:19.634Z,22.33
2019-02-04T02:22:25.381Z,22.20
2019-02-04T02:23:30.009Z,21.43
2019-02-04T02:24:34.662Z,19.40
2019-02-04T02:25:39.171Z,22.10
2019-02-04T02:26:43.848Z,21.50
2019-02-04T02:27:49.017Z,22.07
2019-02-04T02:28:53.527Z,24.03
2019-02-04T02:29:57.997Z,18.97
2019-02-04T02:31:02.608Z,24.50
2019-02-04T02:32:07.278Z,23.83
2019-02-04T02:33:11.764Z,22.13
2019-02-04T02:34:16.303Z,22.87
2019-02-04T02:35:20.854Z,19.33
2019-02-04T02:36:26.505Z,19.13
2019-02-04T02:37:31.053Z,23.13
2019-02-04T02:38:35.620Z,22.07
2019-02-04T02:39:40.390Z,24.77
2019-02-04T02:40:44.992Z,23.97
2019-02-04T02:41:49.497Z,28.90
2019-02-04T02:42:54.017Z,27.03
2019-02-04T02:43:58.577Z,24.20
2019-02-04T02:45:03.491Z,28.13
2019-02-04T02:46:07.891Z,22.93
2019-02-04T02:47:12.355Z,24.37
2019-02-04T02:48:16.877Z,26.57
2019-02-04T02:49:21.493Z,23.73
2019-02-04T02:50:26.426Z,25.20
2019-02-04T02:51:30.895Z,23.53
2019-02-04T02:52:35.578Z,26.53
2019-02-04T02:53:40.149Z,23.20
2019-02-04T02:54:44.607Z,23.67
2019-02-04T02:55:49.014Z,25.00
2019-02-04T02:56:53.474Z,28.13
2019-02-04T02:57:58.105Z,22.37
2019-02-04T02:59:02.776Z,23.23
2019-02-04T03:00:09.306Z,24.33
2019-02-04T03:01:13.887Z,20.83
2019-02-04T03:02:18.478Z,23.03
2019-02-04T03:03:23.384Z,22.80
2019-02-04T03:04:28.530Z,24.67
2019-02-04T03:05:33.075Z,24.93
2019-02-04T03:06:37.637Z,22.33
2019-02-04T03:07:42.204Z,22.83
2019-02-04T03:08:46.801Z,25.93
2019-02-04T03:09:51.214Z,26.37
2019-02-04T03:10:56.137Z,26.77
2019-02-04T03:12:00.611Z,21.80
2019-02-04T03:13:05.327Z,25.13
2019-02-04T03:14:10.028Z,25.10
2019-02-04T03:15:14.764Z,25.10
2019-02-04T03:16:19.311Z,26.70
2019-02-04T03:17:24.197Z,26.53
2019-02-04T03:18:28.950Z,30.43
2019-02-04T03:19:33.461Z,24.50
2019-02-04T03:20:38.022Z,24.00
2019-02-04T03:21:42.861Z,22.97
2019-02-04T03:22:47.299Z,23.23
2019-02-04T03:23:51.997Z,27.67
2019-02-04T03:24:58.769Z,24.83
2019-02-04T03:26:03.184Z,25.53
2019-02-04T03:27:09.449Z,22.97
2019-02-04T03:28:13.888Z,26.77
2019-02-04T03:29:18.626Z,26.43
2019-02-04T03:30:25.714Z,30.70
2019-02-04T03:31:30.437Z,28.00
2019-02-04T03:32:34.864Z,31.97
2019-02-04T03:33:39.765Z,25.93
2019-02-04T03:34:44.198Z,24.17
2019-02-04T03:35:48.637Z,28.57
2019-02-04T03:36:53.240Z,27.80
2019-02-04T03:37:57.714Z,30.13
2019-02-04T03:39:02.248Z,31.00
2019-02-04T03:40:07.287Z,30.80
2019-02-04T03:41:12.128Z,26.13
2019-02-04T03:42:16.831Z,25.83
2019-02-04T03:43:23.658Z,25.17
2019-02-04T03:44:28.141Z,33.17
2019-02-04T03:45:33.003Z,29.83
2019-02-04T03:46:37.439Z,27.47
2019-02-04T03:47:41.792Z,27.77
2019-02-04T03:48:46.558Z,28.53
2019-02-04T03:49:51.050Z,28.33
2019-02-04T03:50:56.569Z,26.33
2019-02-04T03:52:00.933Z,30.10
2019-02-04T03:53:05.889Z,32.03
2019-02-04T03:54:11.594Z,34.70
2019-02-04T03:55:16.832Z,26.50
2019-02-04T03:56:21.300Z,30.47
2019-02-04T03:57:25.833Z,30.30
2019-02-04T03:58:30.280Z,28.00
2019-02-04T03:59:34.870Z,31.27
2019-02-04T04:00:39.618Z,31.63
2019-02-04T04:01:44.553Z,32.97
2019-02-04T04:02:49.182Z,28.83
2019-02-04T04:03:53.913Z,33.77
2019-02-04T04:04:58.285Z,29.67
2019-02-04T04:06:02.813Z,27.03
2019-02-04T04:07:13.172Z,29.60
2019-02-04T04:08:17.541Z,28.90
2019-02-04T04:09:22.387Z,31.43
2019-02-04T04:10:27.189Z,30.97
2019-02-04T04:11:31.656Z,32.07
2019-02-04T04:12:36.157Z,29.03
2019-02-04T04:13:40.619Z,33.73
2019-02-04T04:14:45.080Z,31.67
2019-02-04T04:15:49.779Z,32.80
2019-02-04T04:16:54.332Z,30.80
2019-02-04T04:17:58.943Z,32.70
2019-02-04T04:19:03.393Z,27.67
2019-02-04T04:20:10.263Z,31.50
2019-02-04T04:21:15.049Z,31.20
2019-02-04T04:22:19.804Z,33.60
2019-02-04T04:23:24.289Z,34.13
2019-02-04T04:24:30.498Z,35.07
2019-02-04T04:25:34.942Z,32.80
2019-02-04T04:26:39.529Z,32.13
2019-02-04T04:27:44.008Z,31.07
2019-02-04T04:28:48.501Z,35.33
2019-02-04T04:29:53.098Z,37.70
2019-02-04T04:30:57.632Z,28.80
2019-02-04T04:32:02.199Z,33.50
2019-02-04T04:33:07.117Z,30.60
2019-02-04T04:34:11.887Z,36.27
2019-02-04T04:35:16.452Z,33.73
2019-02-04T04:36:21.220Z,33.43
2019-02-04T04:37:25.641Z,31.53
2019-02-04T04:38:32.713Z,33.20
2019-02-04T04:39:37.355Z,34.57
2019-02-04T04:40:42.257Z,37.33
2019-02-04T04:41:46.733Z,39.53
2019-02-04T04:42:51.324Z,34.03
2019-02-04T04:43:55.812Z,36.37
2019-02-04T04:45:00.322Z,33.30
2019-02-04T04:46:04.747Z,38.37
2019-02-04T04:47:09.201Z,35.30
2019-02-04T04:48:13.642Z,41.60
2019-02-04T04:49:18.033Z,31.73
2019-02-04T04:50:22.781Z,34.20
2019-02-04T04:51:27.186Z,34.83
2019-02-04T04:52:31.706Z,36.30
2019-02-04T04:53:36.165Z,32.93
2019-02-04T04:54:40.560Z,34.43
2019-02-04T04:55:44.965Z,37.63
2019-02-04T04:56:49.445Z,36.07
2019-02-04T04:57:54.524Z,39.03
2019-02-04T04:58:59.349Z,38.63
2019-02-04T05:00:03.902Z,37.07
2019-02-04T05:01:08.780Z,35.03
2019-02-04T05:02:13.228Z,35.23
2019-02-04T05:03:17.646Z,39.70
2019-02-04T05:04:22.177Z,32.80
2019-02-04T05:05:26.765Z,34.07
2019-02-04T05:06:31.219Z,34.43
2019-02-04T05:07:35.783Z,33.50
2019-02-04T05:08:40.470Z,30.87
2019-02-04T05:09:45.088Z,30.00
2019-02-04T05:10:49.588Z,32.97
2019-02-04T05:11:54.172Z,31.57
2019-02-04T05:12:58.576Z,39.30
2019-02-04T05:14:03.005Z,35.13
2019-02-04T05:15:08.709Z,33.73
2019-02-04T05:16:13.522Z,32.77
2019-02-04T05:17:17.878Z,37.90
2019-02-04T05:18:22.369Z,35.33
2019-02-04T05:19:26.809Z,37.80
2019-02-04T05:20:31.376Z,35.83
2019-02-04T05:21:35.733Z,34.67
2019-02-04T05:22:40.419Z,34.73
2019-02-04T05:23:44.941Z,41.47
2019-02-04T05:24:49.470Z,40.23
2019-02-04T05:25:53.954Z,37.97
2019-02-04T05:26:58.364Z,35.03
2019-02-04T05:28:02.866Z,37.57
2019-02-04T05:29:07.417Z,35.30
2019-02-04T05:30:14.203Z,41.73
2019-02-04T05:31:18.789Z,36.93
2019-02-04T05:32:23.388Z,37.10
2019-02-04T05:33:28.051Z,36.40
2019-02-04T05:34:32.842Z,40.70
2019-02-04T05:35:37.997Z,40.97
2019-02-04T05:36:43.174Z,41.50
2019-02-04T05:37:48.310Z,36.77
2019-02-04T05:38:52.826Z,35.97
2019-02-04T05:39:57.332Z,37.07
2019-02-04T05:41:01.771Z,39.67
2019-02-04T05:42:06.289Z,39.60
2019-02-04T05:43:11.428Z,45.30
2019-02-04T05:44:15.872Z,37.27
2019-02-04T05:45:22.363Z,40.63
2019-02-04T05:46:27.002Z,42.67
2019-02-04T05:47:31.634Z,36.37
2019-02-04T05:48:36.118Z,42.93
2019-02-04T05:49:40.558Z,37.87
2019-02-04T05:50:45.024Z,42.57
2019-02-04T05:51:50.440Z,35.77
2019-02-04T05:52:54.799Z,38.70
2019-02-04T05:53:59.750Z,38.30
2019-02-04T05:55:04.906Z,42.00
2019-02-04T05:56:09.422Z,40.40
2019-02-04T05:57:14.373Z,41.57
2019-02-04T05:58:18.805Z,40.47
2019-02-04T05:59:23.667Z,43.50
2019-02-04T06:00:40.833Z,42.47
2019-02-04T06:01:46.134Z,40.23
2019-02-04T06:02:50.741Z,36.80
2019-02-04T06:03:55.268Z,38.70
2019-02-04T06:04:59.744Z,45.93
2019-02-04T06:06:04.714Z,38.47
2019-02-04T06:07:09.801Z,39.43
2019-02-04T06:08:14.392Z,44.80
2019-02-04T06:09:20.221Z,38.17
2019-02-04T06:10:24.983Z,44.03
2019-02-04T06:11:30.709Z,37.20
2019-02-04T06:12:36.246Z,46.37
2019-02-04T06:13:40.760Z,41.83
2019-02-04T06:14:46.843Z,36.53
2019-02-04T06:15:51.414Z,34.87
2019-02-04T06:16:56.246Z,38.43
2019-02-04T06:18:01.254Z,37.13
2019-02-04T06:19:06.256Z,38.97
2019-02-04T06:20:13.860Z,35.10
2019-02-04T06:21:18.526Z,36.47
2019-02-04T06:22:23.006Z,41.70
2019-02-04T06:23:27.593Z,33.67
2019-02-04T06:24:32.284Z,35.23
2019-02-04T06:25:36.770Z,39.67
2019-02-04T06:26:41.516Z,37.83
2019-02-04T06:27:46.145Z,36.43
2019-02-04T06:28:51.012Z,39.50
2019-02-04T06:29:55.619Z,39.13
2019-02-04T06:31:00.220Z,37.53
2019-02-04T06:32:05.101Z,36.87
2019-02-04T06:33:09.733Z,39.43
2019-02-04T06:34:16.424Z,38.23
2019-02-04T06:35:21.091Z,39.47
2019-02-04T06:36:25.822Z,40.20
2019-02-04T06:37:30.701Z,37.73
2019-02-04T06:38:35.415Z,37.87
2019-02-04T06:39:39.969Z,40.97
2019-02-04T06:40:44.458Z,40.43
2019-02-04T06:41:49.054Z,42.13
2019-02-04T06:42:53.757Z,39.20
2019-02-04T06:43:58.434Z,41.33
2019-02-04T06:45:02.970Z,38.57
2019-02-04T06:46:07.565Z,42.33
2019-02-04T06:47:12.342Z,36.03
2019-02-04T06:48:16.891Z,40.87
2019-02-04T06:49:21.434Z,36.23
2019-02-04T06:50:25.922Z,33.10
2019-02-04T06:51:30.455Z,33.73
2019-02-04T06:52:34.990Z,37.90
2019-02-04T06:53:39.533Z,36.50
2019-02-04T06:54:44.305Z,42.00
2019-02-04T06:55:49.151Z,38.43
2019-02-04T06:56:53.726Z,43.90
2019-02-04T06:57:58.409Z,45.07
2019-02-04T06:59:03.351Z,39.27
2019-02-04T07:00:09.193Z,39.07
2019-02-04T07:01:14.387Z,39.47
2019-02-04T07:02:19.153Z,35.43
2019-02-04T07:03:24.105Z,40.70
2019-02-04T07:04:28.622Z,34.93
2019-02-04T07:05:43.137Z,35.40
2019-02-04T07:06:39.251Z,34.43
2019-02-04T07:07:43.781Z,34.10
2019-02-04T07:08:48.299Z,39.33
2019-02-04T07:09:52.801Z,36.67
2019-02-04T07:10:57.365Z,32.30
2019-02-04T07:12:01.968Z,41.53
2019-02-04T07:13:06.776Z,35.67
2019-02-04T07:14:11.494Z,34.10
2019-02-04T07:15:16.499Z,36.30
2019-02-04T07:16:20.989Z,33.13
2019-02-04T07:17:25.546Z,37.27
2019-02-04T07:18:30.445Z,36.73
2019-02-04T07:19:35.273Z,40.13
2019-02-04T07:20:39.926Z,37.53
2019-02-04T07:21:44.572Z,38.30
2019-02-04T07:22:49.138Z,40.03
2019-02-04T07:23:53.915Z,37.47
2019-02-04T07:24:58.427Z,37.43
2019-02-04T07:26:02.943Z,30.73
2019-02-04T07:27:07.526Z,35.10
2019-02-04T07:28:12.314Z,36.40
2019-02-04T07:29:17.221Z,37.40
2019-02-04T07:30:23.916Z,34.30
2019-02-04T07:31:28.783Z,34.57
2019-02-04T07:32:33.310Z,32.00
2019-02-04T07:33:37.892Z,35.53
2019-02-04T07:34:42.389Z,35.93
2019-02-04T07:35:46.981Z,39.50
2019-02-04T07:36:51.450Z,37.30
2019-02-04T07:37:56.016Z,40.63
2019-02-04T07:39:00.536Z,38.17
2019-02-04T07:40:06.809Z,33.50
2019-02-04T07:41:11.211Z,33.43
2019-02-04T07:42:16.211Z,39.20
2019-02-04T07:43:20.630Z,32.00
2019-02-04T07:44:25.240Z,39.73
2019-02-04T07:45:30.020Z,33.87
2019-02-04T07:46:34.460Z,40.17
2019-02-04T07:47:38.903Z,33.00
2019-02-04T07:48:43.890Z,36.40
2019-02-04T07:49:48.254Z,37.30
2019-02-04T07:50:52.680Z,34.83
2019-02-04T07:51:57.033Z,37.70
2019-02-04T07:53:01.475Z,37.10
2019-02-04T07:54:06.202Z,39.13
2019-02-04T07:55:10.789Z,31.23
2019-02-04T07:56:15.429Z,35.90
2019-02-04T07:57:20.325Z,38.53
2019-02-04T07:58:24.997Z,35.77
2019-02-04T07:59:29.747Z,35.87
2019-02-04T08:00:34.668Z,33.00
2019-02-04T08:01:39.289Z,30.20
2019-02-04T08:02:44.451Z,31.70
2019-02-04T08:03:49.142Z,28.63
2019-02-04T08:04:54.209Z,30.23
2019-02-04T08:05:58.723Z,29.43
2019-02-04T08:07:03.721Z,28.63
2019-02-04T08:08:08.791Z,28.80
2019-02-04T08:09:13.830Z,29.03
2019-02-04T08:10:18.908Z,27.53
2019-02-04T08:11:23.526Z,28.33
2019-02-04T08:12:28.201Z,26.90
2019-02-04T08:13:32.708Z,25.47
2019-02-04T08:14:38.643Z,27.83
2019-02-04T08:15:43.182Z,25.40
2019-02-04T08:16:47.596Z,28.53
2019-02-04T08:17:52.061Z,24.80
2019-02-04T08:18:56.602Z,24.83
2019-02-04T08:20:00.980Z,27.53
2019-02-04T08:21:05.485Z,22.57
2019-02-04T08:22:10.006Z,23.33
2019-02-04T08:23:14.682Z,22.70
2019-02-04T08:24:19.053Z,23.93
2019-02-04T08:25:25.987Z,25.07
2019-02-04T08:26:30.626Z,25.70
2019-02-04T08:27:35.150Z,25.80
2019-02-04T08:28:39.617Z,24.43
2019-02-04T08:29:44.089Z,26.77
2019-02-04T08:30:48.495Z,22.77
2019-02-04T08:31:52.957Z,21.63
2019-02-04T08:32:57.609Z,23.50
2019-02-04T08:34:02.091Z,20.90
2019-02-04T08:35:06.689Z,18.47
2019-02-04T08:36:11.530Z,19.97
2019-02-04T08:37:16.080Z,18.27
2019-02-04T08:38:20.595Z,21.40
2019-02-04T08:39:25.088Z,17.67
2019-02-04T08:40:30.138Z,18.87
2019-02-04T08:41:34.529Z,20.20
2019-02-04T08:42:39.231Z,18.33
2019-02-04T08:43:43.631Z,18.43
2019-02-04T08:44:48.143Z,18.83
2019-02-04T08:45:52.732Z,18.97
2019-02-04T08:46:57.171Z,17.83
2019-02-04T08:48:01.735Z,18.00
2019-02-04T08:49:06.176Z,20.10
2019-02-04T08:50:12.657Z,16.07
2019-02-04T08:51:17.198Z,17.20
2019-02-04T08:52:21.981Z,21.83
2019-02-04T08:53:26.877Z,16.33
2019-02-04T08:54:31.686Z,16.47
2019-02-04T08:55:36.660Z,15.77
2019-02-04T08:56:42.971Z,16.00
2019-02-04T08:57:47.444Z,17.10
2019-02-04T08:58:51.864Z,17.47
2019-02-04T08:59:56.713Z,15.67
2019-02-04T09:01:01.149Z,16.50
2019-02-04T09:02:05.738Z,18.73
2019-02-04T09:03:10.578Z,15.67
2019-02-04T09:04:15.244Z,17.40
2019-02-04T09:05:20.364Z,15.23
2019-02-04T09:06:24.885Z,16.77
2019-02-04T09:07:29.402Z,15.97
2019-02-04T09:08:33.992Z,13.57
2019-02-04T09:09:38.424Z,16.70
2019-02-04T09:10:42.858Z,13.37
2019-02-04T09:11:47.297Z,17.37
2019-02-04T09:12:51.909Z,16.60
2019-02-04T09:13:56.441Z,15.13
2019-02-04T09:15:00.886Z,14.20
2019-02-04T09:16:05.839Z,14.70
2019-02-04T09:17:10.506Z,15.57
2019-02-04T09:18:15.218Z,13.00
2019-02-04T09:19:19.911Z,13.03
2019-02-04T09:20:24.355Z,12.93
2019-02-04T09:21:28.904Z,13.07
2019-02-04T09:22:33.600Z,11.77
2019-02-04T09:23:38.064Z,13.27
2019-02-04T09:24:42.576Z,12.83
2019-02-04T09:25:46.916Z,14.73
2019-02-04T09:26:51.388Z,13.53
2019-02-04T09:27:56.061Z,11.27
2019-02-04T09:29:00.576Z,13.43
2019-02-04T09:30:05.896Z,10.90
2019-02-04T09:31:10.572Z,12.37
2019-02-04T09:32:15.133Z,14.13
2019-02-04T09:33:19.953Z,11.17
2019-02-04T09:34:24.581Z,12.57
2019-02-04T09:35:29.586Z,11.13
2019-02-04T09:36:34.106Z,11.57
2019-02-04T09:37:38.992Z,11.73
2019-02-04T09:38:43.430Z,13.63
2019-02-04T09:39:47.894Z,12.20
2019-02-04T09:40:52.361Z,11.87
2019-02-04T09:41:56.897Z,15.33
2019-02-04T09:43:01.431Z,9.83
2019-02-04T09:44:05.826Z,13.40
2019-02-04T09:45:13.027Z,11.33
2019-02-04T09:46:17.455Z,12.13
2019-02-04T09:47:24.975Z,10.60
2019-02-04T09:48:29.421Z,12.40
2019-02-04T09:49:33.870Z,11.27
2019-02-04T09:50:38.993Z,13.77
2019-02-04T09:51:43.765Z,12.20
2019-02-04T09:52:48.231Z,11.73
2019-02-04T09:53:52.664Z,12.13
2019-02-04T09:54:57.184Z,14.20
2019-02-04T09:56:02.397Z,12.77
2019-02-04T09:57:07.007Z,9.33
2019-02-04T09:58:11.684Z,11.00
2019-02-04T09:59:16.136Z,9.03
2019-02-04T10:00:25.934Z,10.73
2019-02-04T10:01:30.520Z,10.60
2019-02-04T10:02:35.160Z,11.03
2019-02-04T10:03:39.971Z,9.70
2019-02-04T10:04:44.505Z,10.60
2019-02-04T10:05:48.934Z,8.77
2019-02-04T10:06:55.321Z,9.37
2019-02-04T10:07:59.488Z,10.77
2019-02-04T10:09:05.400Z,12.63
2019-02-04T10:10:11.132Z,10.00
2019-02-04T10:11:15.935Z,10.37
2019-02-04T10:12:20.772Z,9.63
2019-02-04T10:13:25.338Z,10.77
2019-02-04T10:14:29.882Z,9.57
2019-02-04T10:15:36.957Z,10.20
2019-02-04T10:16:41.470Z,9.27
2019-02-04T10:17:45.967Z,10.83
2019-02-04T10:18:50.756Z,11.10
2019-02-04T10:19:55.343Z,8.83
2019-02-04T10:20:59.869Z,8.20
2019-02-04T10:22:04.655Z,10.83
2019-02-04T10:23:09.282Z,9.73
2019-02-04T10:24:14.032Z,10.80
2019-02-04T10:25:20.784Z,7.63
2019-02-04T10:26:25.451Z,8.33
2019-02-04T10:27:30.887Z,11.97
2019-02-04T10:28:35.406Z,8.77
2019-02-04T10:29:40.096Z,7.33
2019-02-04T10:30:45.043Z,8.23
2019-02-04T10:31:49.845Z,8.20
2019-02-04T10:32:54.587Z,6.87
2019-02-04T10:33:59.259Z,9.67
2019-02-04T10:35:04.188Z,8.53
2019-02-04T10:36:08.909Z,8.27
2019-02-04T10:37:13.525Z,8.77
2019-02-04T10:38:18.520Z,8.33
2019-02-04T10:39:23.093Z,9.13
2019-02-04T10:40:27.942Z,8.20
2019-02-04T10:41:32.418Z,7.83
2019-02-04T10:42:36.868Z,9.67
2019-02-04T10:43:41.414Z,8.30
2019-02-04T10:44:45.886Z,10.83
2019-02-04T10:45:50.380Z,7.43
2019-02-04T10:46:55.507Z,10.27
2019-02-04T10:47:59.937Z,9.03
2019-02-04T10:49:04.740Z,9.97
2019-02-04T10:50:21.993Z,10.97
2019-02-04T10:51:26.549Z,10.60
2019-02-04T10:52:31.344Z,9.63
2019-02-04T10:53:37.168Z,10.37
2019-02-04T10:54:41.730Z,9.00
2019-02-04T10:55:46.360Z,8.50
2019-02-04T10:56:50.825Z,9.10
2019-02-04T10:57:55.471Z,8.73
2019-02-04T10:59:00.159Z,9.40
2019-02-04T11:00:06.159Z,8.20
2019-02-04T11:01:10.697Z,8.90
2019-02-04T11:02:15.385Z,8.03
2019-02-04T11:03:20.210Z,9.57
2019-02-04T11:04:25.400Z,8.10
2019-02-04T11:05:31.384Z,9.40
2019-02-04T11:06:35.937Z,8.97
2019-02-04T11:07:40.975Z,8.93
2019-02-04T11:08:45.486Z,9.33
2019-02-04T11:09:50.034Z,11.43
2019-02-04T11:10:54.964Z,8.57
2019-02-04T11:11:59.846Z,8.50
2019-02-04T11:13:09.603Z,9.53
2019-02-04T11:14:14.183Z,10.57
2019-02-04T11:15:19.445Z,9.17
2019-02-04T11:16:23.918Z,7.30
2019-02-04T11:17:28.394Z,9.30
2019-02-04T11:18:33.013Z,9.03
2019-02-04T11:19:37.610Z,9.07
2019-02-04T11:20:42.426Z,10.30
2019-02-04T11:21:47.178Z,7.67
2019-02-04T11:22:51.935Z,11.10
2019-02-04T11:23:56.564Z,8.07
2019-02-04T11:25:01.263Z,7.83
2019-02-04T11:26:06.075Z,8.70
2019-02-04T11:27:10.937Z,9.10
2019-02-04T11:28:15.635Z,9.43
2019-02-04T11:29:20.144Z,7.80
2019-02-04T11:30:30.088Z,8.67
2019-02-04T11:31:34.721Z,8.80
2019-02-04T11:32:39.405Z,7.07
2019-02-04T11:33:44.241Z,9.50
2019-02-04T11:34:49.332Z,7.97
2019-02-04T11:35:53.889Z,8.63
2019-02-04T11:36:58.425Z,10.30
2019-02-04T11:38:03.223Z,7.97
2019-02-04T11:39:09.920Z,6.97
2019-02-04T11:40:16.735Z,9.47
2019-02-04T11:41:21.222Z,10.70
2019-02-04T11:42:25.711Z,9.13
2019-02-04T11:43:30.622Z,9.43
2019-02-04T11:44:35.203Z,7.70
2019-02-04T11:45:39.868Z,9.53
2019-02-04T11:46:44.416Z,8.83
2019-02-04T11:47:49.086Z,8.27
2019-02-04T11:48:53.507Z,10.23
2019-02-04T11:49:57.865Z,9.37
2019-02-04T11:51:09.346Z,8.10
2019-02-04T11:52:09.017Z,10.40
2019-02-04T11:53:14.055Z,10.37
2019-02-04T11:54:18.524Z,7.20
2019-02-04T11:55:22.980Z,7.43
2019-02-04T11:56:27.536Z,8.67
2019-02-04T11:57:36.118Z,8.87
2019-02-04T11:58:40.491Z,7.87
2019-02-04T11:59:44.941Z,7.83
2019-02-04T12:00:49.626Z,7.13
2019-02-04T12:01:54.212Z,12.17
2019-02-04T12:02:59.702Z,10.77
2019-02-04T12:04:04.374Z,9.37
2019-02-04T12:05:10.678Z,8.77
2019-02-04T12:06:17.486Z,8.30
2019-02-04T12:07:21.770Z,8.17
2019-02-04T12:08:26.404Z,9.73
2019-02-04T12:09:31.211Z,8.93
2019-02-04T12:10:38.759Z,8.33
2019-02-04T12:11:43.447Z,9.37
2019-02-04T12:12:48.109Z,9.17
2019-02-04T12:13:52.934Z,10.33
2019-02-04T12:14:57.634Z,9.00
2019-02-04T12:16:02.076Z,7.03
2019-02-04T12:17:06.638Z,9.33
2019-02-04T12:18:11.211Z,10.30
2019-02-04T12:19:15.971Z,9.87
2019-02-04T12:20:20.673Z,6.37
2019-02-04T12:21:25.187Z,9.07
2019-02-04T12:22:29.782Z,7.47
2019-02-04T12:23:34.248Z,8.30
2019-02-04T12:24:38.782Z,8.63
2019-02-04T12:25:43.260Z,7.83
2019-02-04T12:26:47.714Z,8.47
2019-02-04T12:27:52.477Z,7.83
2019-02-04T12:28:57.870Z,7.40
2019-02-04T12:30:02.492Z,8.00
2019-02-04T12:31:07.685Z,9.97
2019-02-04T12:32:12.407Z,8.30
2019-02-04T12:33:17.373Z,7.80
2019-02-04T12:34:22.038Z,9.03
2019-02-04T12:35:26.789Z,7.93
2019-02-04T12:36:31.332Z,8.30
2019-02-04T12:37:35.981Z,8.97
2019-02-04T12:38:40.529Z,8.60
2019-02-04T12:39:45.017Z,6.97
2019-02-04T12:40:49.740Z,8.87
2019-02-04T12:41:54.402Z,7.37
2019-02-04T12:42:58.962Z,9.10
2019-02-04T12:44:03.631Z,11.13
2019-02-04T12:45:10.863Z,9.47
2019-02-04T12:46:15.536Z,7.50
2019-02-04T12:47:20.157Z,8.97
2019-02-04T12:48:24.749Z,9.73
2019-02-04T12:49:29.596Z,11.30
2019-02-04T12:50:35.539Z,8.33
2019-02-04T12:51:40.110Z,11.93
2019-02-04T12:52:44.592Z,10.50
2019-02-04T12:53:49.285Z,7.33
2019-02-04T12:54:53.909Z,10.23
2019-02-04T12:55:58.349Z,8.37
2019-02-04T12:57:03.044Z,7.47
2019-02-04T12:58:07.625Z,8.67
2019-02-04T12:59:12.639Z,9.07
2019-02-04T13:00:19.714Z,8.00
2019-02-04T13:01:24.381Z,8.33
2019-02-04T13:02:29.080Z,8.77
2019-02-04T13:03:34.023Z,9.33
2019-02-04T13:04:38.449Z,8.90
2019-02-04T13:05:48.423Z,6.63
2019-02-04T13:06:53.086Z,6.83
2019-02-04T13:07:57.670Z,7.63
2019-02-04T13:09:02.469Z,6.70
2019-02-04T13:10:07.667Z,8.27
2019-02-04T13:11:12.362Z,8.53
2019-02-04T13:12:16.904Z,6.67
2019-02-04T13:13:22.759Z,8.93
2019-02-04T13:14:27.276Z,7.80
2019-02-04T13:15:31.866Z,8.37
2019-02-04T13:16:36.419Z,7.63
2019-02-04T13:17:40.982Z,8.33
2019-02-04T13:18:45.472Z,6.80
2019-02-04T13:19:50.228Z,8.03
2019-02-04T13:20:54.746Z,5.83
2019-02-04T13:21:59.318Z,8.73
2019-02-04T13:23:03.849Z,8.30
2019-02-04T13:24:08.449Z,8.23
2019-02-04T13:25:15.398Z,9.10
2019-02-04T13:26:19.983Z,6.40
2019-02-04T13:27:24.382Z,6.60
2019-02-04T13:28:29.280Z,8.77
2019-02-04T13:29:33.985Z,8.50
2019-02-04T13:30:38.647Z,9.53
2019-02-04T13:31:43.121Z,6.23
2019-02-04T13:32:47.622Z,7.50
2019-02-04T13:33:52.109Z,7.70
2019-02-04T13:34:56.676Z,7.37
2019-02-04T13:37:15.857Z,8.93
2019-02-04T13:38:20.494Z,8.17
2019-02-04T13:39:25.126Z,6.73
2019-02-04T13:40:30.083Z,8.17
2019-02-04T13:41:36.065Z,6.00
2019-02-04T13:42:40.768Z,6.97
2019-02-04T13:43:45.311Z,8.33
2019-02-04T13:44:49.734Z,6.23
2019-02-04T13:45:54.362Z,7.80
2019-02-04T13:46:58.988Z,7.70
2019-02-04T13:48:03.507Z,5.73
2019-02-04T13:49:08.556Z,6.23
2019-02-04T13:50:14.252Z,7.70
2019-02-04T13:51:19.283Z,10.63
2019-02-04T13:52:23.938Z,8.17
2019-02-04T13:53:28.504Z,5.70
2019-02-04T13:54:34.228Z,6.77
2019-02-04T13:55:40.555Z,8.47
2019-02-04T13:56:45.890Z,6.90
2019-02-04T13:57:51.291Z,5.10
2019-02-04T13:58:55.842Z,6.23
2019-02-04T14:00:00.545Z,6.67
2019-02-04T14:01:05.932Z,6.77
2019-02-04T14:02:13.387Z,5.67
2019-02-04T14:03:17.953Z,8.00